sensor_id;sensor_type;location;lat;lon;timestamp;pressure;altitude;pressure_sealevel;temperature;humidity
29839;BME280;18669;53.356;-1.464;2023-03-03T00:01:22;101980.72;;;6.00;100.00
29839;BME280;18669;53.356;-1.464;2023-03-03T00:03:52;101974.50;;;5.96;100.00
29839;BME280;18669;53.356;-1.464;2023-03-03T00:06:19;101977.22;;;6.01;100.00
29839;BME280;18669;53.356;-1.464;2023-03-03T00:08:45;101979.66;;;5.93;100.00
29839;BME280;18669;53.356;-1.464;2023-03-03T00:11:11;101981.22;;;5.85;100.00
29839;BME280;18669;53.356;-1.464;2023-03-03T00:13:49;101992.91;;;6.01;100.00
29839;BME280;18669;53.356;-1.464;2023-03-03T00:16:21;101993.94;;;6.08;100.00
29839;BME280;18669;53.356;-1.464;2023-03-03T00:18:52;101986.16;;;6.12;100.00
29839;BME280;18669;53.356;-1.464;2023-03-03T00:21:24;101993.19;;;6.15;100.00
29839;BME280;18669;53.356;-1.464;2023-03-03T00:23:52;101992.16;;;6.07;100.00
29839;BME280;18669;53.356;-1.464;2023-03-03T00:26:26;101980.13;;;6.15;100.00
29839;BME280;18669;53.356;-1.464;2023-03-03T00:28:54;101981.66;;;6.05;100.00
29839;BME280;18669;53.356;-1.464;2023-03-03T00:31:33;101981.09;;;6.20;100.00
29839;BME280;18669;53.356;-1.464;2023-03-03T00:34:23;101983.59;;;6.14;99.28
29839;BME280;18669;53.356;-1.464;2023-03-03T00:36:55;101988.56;;;6.02;100.00
29839;BME280;18669;53.356;-1.464;2023-03-03T00:39:37;101982.50;;;6.03;100.00
29839;BME280;18669;53.356;-1.464;2023-03-03T00:42:14;101977.91;;;5.92;100.00
29839;BME280;18669;53.356;-1.464;2023-03-03T00:47:28;101985.94;;;6.00;100.00
29839;BME280;18669;53.356;-1.464;2023-03-03T00:50:32;101990.53;;;6.12;97.10
29839;BME280;18669;53.356;-1.464;2023-03-03T00:53:05;101988.78;;;6.12;97.52
29839;BME280;18669;53.356;-1.464;2023-03-03T00:55:32;101995.56;;;6.04;98.94
29839;BME280;18669;53.356;-1.464;2023-03-03T00:57:59;101991.91;;;5.96;93.97
29839;BME280;18669;53.356;-1.464;2023-03-03T01:00:25;101998.44;;;6.15;94.03
29839;BME280;18669;53.356;-1.464;2023-03-03T01:02:51;101998.00;;;5.95;95.14
29839;BME280;18669;53.356;-1.464;2023-03-03T01:05:17;102004.22;;;6.00;96.06
29839;BME280;18669;53.356;-1.464;2023-03-03T01:07:43;102007.31;;;6.25;94.96
29839;BME280;18669;53.356;-1.464;2023-03-03T01:10:10;102001.66;;;6.03;94.97
29839;BME280;18669;53.356;-1.464;2023-03-03T01:12:36;102011.25;;;6.03;96.26
29839;BME280;18669;53.356;-1.464;2023-03-03T01:15:08;102016.72;;;6.15;97.56
29839;BME280;18669;53.356;-1.464;2023-03-03T01:17:35;102009.56;;;6.06;96.22
29839;BME280;18669;53.356;-1.464;2023-03-03T01:20:02;102006.22;;;6.14;94.48
29839;BME280;18669;53.356;-1.464;2023-03-03T01:22:28;102007.00;;;6.08;97.64
29839;BME280;18669;53.356;-1.464;2023-03-03T01:24:54;102010.44;;;6.07;97.78
29839;BME280;18669;53.356;-1.464;2023-03-03T01:27:20;102019.03;;;6.01;96.51
29839;BME280;18669;53.356;-1.464;2023-03-03T01:29:46;102008.38;;;5.93;98.65
29839;BME280;18669;53.356;-1.464;2023-03-03T01:32:12;102010.19;;;5.96;96.56
29839;BME280;18669;53.356;-1.464;2023-03-03T01:34:38;102017.59;;;6.16;96.66
29839;BME280;18669;53.356;-1.464;2023-03-03T01:37:04;102008.31;;;5.90;98.04
29839;BME280;18669;53.356;-1.464;2023-03-03T01:39:30;102010.06;;;5.90;99.70
29839;BME280;18669;53.356;-1.464;2023-03-03T01:41:56;102009.09;;;5.85;95.36
29839;BME280;18669;53.356;-1.464;2023-03-03T01:44:22;102013.38;;;5.81;97.61
29839;BME280;18669;53.356;-1.464;2023-03-03T01:47:04;102006.69;;;5.94;97.03
29839;BME280;18669;53.356;-1.464;2023-03-03T01:49:57;102002.38;;;5.96;94.23
29839;BME280;18669;53.356;-1.464;2023-03-03T01:52:24;102006.41;;;5.83;95.49
29839;BME280;18669;53.356;-1.464;2023-03-03T01:55:00;102009.78;;;5.77;97.25
29839;BME280;18669;53.356;-1.464;2023-03-03T01:57:32;101998.91;;;5.56;99.19
29839;BME280;18669;53.356;-1.464;2023-03-03T02:00:02;102012.16;;;5.65;100.00
29839;BME280;18669;53.356;-1.464;2023-03-03T02:02:30;102013.97;;;5.69;100.00
29839;BME280;18669;53.356;-1.464;2023-03-03T02:04:57;102010.56;;;5.72;99.63
29839;BME280;18669;53.356;-1.464;2023-03-03T02:07:24;102015.94;;;5.79;97.62
29839;BME280;18669;53.356;-1.464;2023-03-03T02:09:54;102020.00;;;5.66;99.97
29839;BME280;18669;53.356;-1.464;2023-03-03T02:12:30;102020.47;;;5.88;99.97
29839;BME280;18669;53.356;-1.464;2023-03-03T02:14:57;102017.69;;;5.79;100.00
29839;BME280;18669;53.356;-1.464;2023-03-03T02:17:23;102022.97;;;5.82;98.12
29839;BME280;18669;53.356;-1.464;2023-03-03T02:22:16;102015.44;;;5.97;97.49
29839;BME280;18669;53.356;-1.464;2023-03-03T02:24:59;102020.50;;;5.90;100.00
29839;BME280;18669;53.356;-1.464;2023-03-03T02:27:29;102012.47;;;5.79;100.00
29839;BME280;18669;53.356;-1.464;2023-03-03T02:29:56;102010.50;;;5.68;97.19
29839;BME280;18669;53.356;-1.464;2023-03-03T02:32:23;102010.34;;;5.62;95.66
29839;BME280;18669;53.356;-1.464;2023-03-03T02:34:51;102003.28;;;5.58;98.43
29839;BME280;18669;53.356;-1.464;2023-03-03T02:37:18;102008.72;;;5.67;99.63
29839;BME280;18669;53.356;-1.464;2023-03-03T02:39:45;102004.97;;;5.56;99.09
29839;BME280;18669;53.356;-1.464;2023-03-03T02:44:39;101997.00;;;5.48;96.75
29839;BME280;18669;53.356;-1.464;2023-03-03T02:47:06;101996.84;;;5.42;96.33
29839;BME280;18669;53.356;-1.464;2023-03-03T02:49:34;102005.09;;;5.61;98.70
29839;BME280;18669;53.356;-1.464;2023-03-03T02:52:03;101998.91;;;5.57;97.94
29839;BME280;18669;53.356;-1.464;2023-03-03T02:54:31;102004.84;;;5.50;99.38
29839;BME280;18669;53.356;-1.464;2023-03-03T02:56:58;101997.00;;;5.48;99.57
29839;BME280;18669;53.356;-1.464;2023-03-03T02:59:24;101997.47;;;5.32;100.00
29839;BME280;18669;53.356;-1.464;2023-03-03T03:01:51;102011.66;;;5.43;100.00
29839;BME280;18669;53.356;-1.464;2023-03-03T03:04:22;102011.19;;;5.61;100.00
29839;BME280;18669;53.356;-1.464;2023-03-03T03:06:49;102000.66;;;5.57;100.00
29839;BME280;18669;53.356;-1.464;2023-03-03T03:09:16;101999.06;;;5.63;100.00
29839;BME280;18669;53.356;-1.464;2023-03-03T03:11:43;101998.13;;;5.60;96.07
29839;BME280;18669;53.356;-1.464;2023-03-03T03:14:10;101992.84;;;5.58;98.92
29839;BME280;18669;53.356;-1.464;2023-03-03T03:16:37;101984.72;;;5.44;99.46
29839;BME280;18669;53.356;-1.464;2023-03-03T03:19:04;101990.81;;;5.45;100.00
29839;BME280;18669;53.356;-1.464;2023-03-03T03:21:31;101987.38;;;5.46;100.00
29839;BME280;18669;53.356;-1.464;2023-03-03T03:23:57;101984.75;;;5.46;100.00
29839;BME280;18669;53.356;-1.464;2023-03-03T03:26:23;101988.31;;;5.51;100.00
29839;BME280;18669;53.356;-1.464;2023-03-03T03:28:50;101984.31;;;5.65;100.00
29839;BME280;18669;53.356;-1.464;2023-03-03T03:31:18;101976.53;;;5.68;100.00
29839;BME280;18669;53.356;-1.464;2023-03-03T03:33:44;101985.06;;;5.60;100.00
29839;BME280;18669;53.356;-1.464;2023-03-03T03:36:10;101984.28;;;5.64;100.00
29839;BME280;18669;53.356;-1.464;2023-03-03T03:38:36;101977.38;;;5.67;100.00
29839;BME280;18669;53.356;-1.464;2023-03-03T03:41:02;101980.44;;;5.89;100.00
29839;BME280;18669;53.356;-1.464;2023-03-03T03:43:29;101980.94;;;5.71;100.00
29839;BME280;18669;53.356;-1.464;2023-03-03T03:45:56;101983.53;;;5.71;100.00
29839;BME280;18669;53.356;-1.464;2023-03-03T03:48:22;101990.25;;;5.58;100.00
29839;BME280;18669;53.356;-1.464;2023-03-03T03:50:49;101982.47;;;5.61;100.00
29839;BME280;18669;53.356;-1.464;2023-03-03T03:53:16;101984.94;;;5.55;100.00
29839;BME280;18669;53.356;-1.464;2023-03-03T03:55:43;101982.25;;;5.52;100.00
29839;BME280;18669;53.356;-1.464;2023-03-03T03:58:13;101993.75;;;5.59;100.00
29839;BME280;18669;53.356;-1.464;2023-03-03T04:00:40;101978.81;;;5.53;100.00
29839;BME280;18669;53.356;-1.464;2023-03-03T04:03:07;101985.69;;;5.49;100.00
29839;BME280;18669;53.356;-1.464;2023-03-03T04:05:33;101980.34;;;5.43;100.00
29839;BME280;18669;53.356;-1.464;2023-03-03T04:08:00;101980.47;;;5.49;100.00
29839;BME280;18669;53.356;-1.464;2023-03-03T04:10:25;101983.94;;;5.48;100.00
29839;BME280;18669;53.356;-1.464;2023-03-03T04:12:51;101984.63;;;5.41;100.00
29839;BME280;18669;53.356;-1.464;2023-03-03T04:15:18;101985.56;;;5.43;100.00
29839;BME280;18669;53.356;-1.464;2023-03-03T04:17:43;101994.84;;;5.70;100.00
29839;BME280;18669;53.356;-1.464;2023-03-03T04:20:12;101985.00;;;5.58;100.00
29839;BME280;18669;53.356;-1.464;2023-03-03T04:22:38;101970.81;;;5.45;100.00
29839;BME280;18669;53.356;-1.464;2023-03-03T04:25:05;101985.09;;;5.61;100.00
29839;BME280;18669;53.356;-1.464;2023-03-03T04:27:32;101982.38;;;5.57;100.00
29839;BME280;18669;53.356;-1.464;2023-03-03T04:29:58;101985.78;;;5.54;100.00
29839;BME280;18669;53.356;-1.464;2023-03-03T04:32:24;101987.59;;;5.57;100.00
29839;BME280;18669;53.356;-1.464;2023-03-03T04:34:50;101989.38;;;5.58;100.00
29839;BME280;18669;53.356;-1.464;2023-03-03T04:37:16;101979.41;;;5.41;100.00
29839;BME280;18669;53.356;-1.464;2023-03-03T04:39:42;101983.91;;;5.47;100.00
29839;BME280;18669;53.356;-1.464;2023-03-03T04:42:08;101986.56;;;5.50;100.00
29839;BME280;18669;53.356;-1.464;2023-03-03T04:44:34;101992.75;;;5.53;100.00
29839;BME280;18669;53.356;-1.464;2023-03-03T04:47:00;101980.44;;;5.48;100.00
29839;BME280;18669;53.356;-1.464;2023-03-03T04:49:26;101983.03;;;5.46;100.00
29839;BME280;18669;53.356;-1.464;2023-03-03T04:51:52;101987.25;;;5.41;100.00
29839;BME280;18669;53.356;-1.464;2023-03-03T04:54:18;101996.50;;;5.65;100.00
29839;BME280;18669;53.356;-1.464;2023-03-03T04:56:44;101989.09;;;5.45;100.00
29839;BME280;18669;53.356;-1.464;2023-03-03T04:59:10;101982.03;;;5.41;100.00
29839;BME280;18669;53.356;-1.464;2023-03-03T05:01:36;101980.13;;;5.34;100.00
29839;BME280;18669;53.356;-1.464;2023-03-03T05:04:02;101991.69;;;5.44;100.00
29839;BME280;18669;53.356;-1.464;2023-03-03T05:06:28;101989.00;;;5.42;100.00
29839;BME280;18669;53.356;-1.464;2023-03-03T05:08:54;101993.16;;;5.32;100.00
29839;BME280;18669;53.356;-1.464;2023-03-03T05:11:20;101979.78;;;5.18;100.00
29839;BME280;18669;53.356;-1.464;2023-03-03T05:13:46;101990.44;;;5.28;100.00
29839;BME280;18669;53.356;-1.464;2023-03-03T05:16:12;101987.94;;;5.32;100.00
29839;BME280;18669;53.356;-1.464;2023-03-03T05:18:38;101990.56;;;5.34;100.00
29839;BME280;18669;53.356;-1.464;2023-03-03T05:21:04;101988.03;;;5.37;100.00
29839;BME280;18669;53.356;-1.464;2023-03-03T05:23:30;101982.66;;;5.31;100.00
29839;BME280;18669;53.356;-1.464;2023-03-03T05:25:56;101990.69;;;5.40;100.00
29839;BME280;18669;53.356;-1.464;2023-03-03T05:28:22;101983.72;;;5.39;100.00
29839;BME280;18669;53.356;-1.464;2023-03-03T05:30:49;101979.19;;;5.30;100.00
29839;BME280;18669;53.356;-1.464;2023-03-03T05:33:16;101982.94;;;5.43;100.00
29839;BME280;18669;53.356;-1.464;2023-03-03T05:35:43;101980.41;;;5.46;100.00
29839;BME280;18669;53.356;-1.464;2023-03-03T05:38:09;101981.94;;;5.36;100.00
29839;BME280;18669;53.356;-1.464;2023-03-03T05:40:36;101980.25;;;5.40;100.00
29839;BME280;18669;53.356;-1.464;2023-03-03T05:43:02;101981.09;;;5.39;100.00
29839;BME280;18669;53.356;-1.464;2023-03-03T05:45:28;101987.19;;;5.38;100.00
29839;BME280;18669;53.356;-1.464;2023-03-03T05:47:54;101979.41;;;5.40;100.00
29839;BME280;18669;53.356;-1.464;2023-03-03T05:50:22;101987.56;;;5.55;100.00
29839;BME280;18669;53.356;-1.464;2023-03-03T05:52:49;101989.22;;;5.51;100.00
29839;BME280;18669;53.356;-1.464;2023-03-03T05:55:17;101982.25;;;5.52;100.00
29839;BME280;18669;53.356;-1.464;2023-03-03T05:57:44;101982.25;;;5.50;100.00
29839;BME280;18669;53.356;-1.464;2023-03-03T06:00:11;101988.31;;;5.51;100.00
29839;BME280;18669;53.356;-1.464;2023-03-03T06:02:38;101987.47;;;5.50;100.00
29839;BME280;18669;53.356;-1.464;2023-03-03T06:05:04;101992.38;;;5.36;100.00
29839;BME280;18669;53.356;-1.464;2023-03-03T06:07:30;101990.25;;;5.58;100.00
29839;BME280;18669;53.356;-1.464;2023-03-03T06:09:56;101975.22;;;5.10;100.00
29839;BME280;18669;53.356;-1.464;2023-03-03T06:12:22;101981.63;;;5.24;100.00
29839;BME280;18669;53.356;-1.464;2023-03-03T06:14:48;101980.03;;;5.29;100.00
29839;BME280;18669;53.356;-1.464;2023-03-03T06:17:14;101983.66;;;5.36;100.00
29839;BME280;18669;53.356;-1.464;2023-03-03T06:19:40;101987.00;;;5.30;100.00
29839;BME280;18669;53.356;-1.464;2023-03-03T06:22:06;101991.63;;;5.42;100.00
29839;BME280;18669;53.356;-1.464;2023-03-03T06:24:33;101983.03;;;5.46;100.00
29839;BME280;18669;53.356;-1.464;2023-03-03T06:26:59;101992.63;;;5.47;100.00
29839;BME280;18669;53.356;-1.464;2023-03-03T06:29:27;101992.59;;;5.46;100.00
29839;BME280;18669;53.356;-1.464;2023-03-03T06:31:53;101987.03;;;5.32;100.00
29839;BME280;18669;53.356;-1.464;2023-03-03T06:34:19;101987.00;;;5.30;100.00
29839;BME280;18669;53.356;-1.464;2023-03-03T06:36:45;101991.84;;;5.53;100.00
29839;BME280;18669;53.356;-1.464;2023-03-03T06:39:12;102001.84;;;5.33;100.00
29839;BME280;18669;53.356;-1.464;2023-03-03T06:41:38;101994.75;;;5.26;100.00
29839;BME280;18669;53.356;-1.464;2023-03-03T06:44:04;101998.97;;;5.20;100.00
29839;BME280;18669;53.356;-1.464;2023-03-03T06:46:30;101996.44;;;5.23;100.00
29839;BME280;18669;53.356;-1.464;2023-03-03T06:48:56;102003.50;;;5.28;100.00
29839;BME280;18669;53.356;-1.464;2023-03-03T06:51:24;102002.75;;;5.35;100.00
29839;BME280;18669;53.356;-1.464;2023-03-03T06:53:55;102002.75;;;5.35;100.00
29839;BME280;18669;53.356;-1.464;2023-03-03T06:56:23;102005.28;;;5.30;100.00
29839;BME280;18669;53.356;-1.464;2023-03-03T06:58:58;102010.66;;;5.36;100.00
29839;BME280;18669;53.356;-1.464;2023-03-03T07:01:30;102013.69;;;5.18;100.00
29839;BME280;18669;53.356;-1.464;2023-03-03T07:03:59;102005.63;;;5.09;100.00
29839;BME280;18669;53.356;-1.464;2023-03-03T07:06:26;102010.00;;;5.10;100.00
29839;BME280;18669;53.356;-1.464;2023-03-03T07:08:53;102017.03;;;5.13;100.00
29839;BME280;18669;53.356;-1.464;2023-03-03T07:11:21;102026.69;;;5.17;100.00
29839;BME280;18669;53.356;-1.464;2023-03-03T07:13:52;102027.91;;;5.30;100.00
29839;BME280;18669;53.356;-1.464;2023-03-03T07:16:24;102029.69;;;5.34;100.00
29839;BME280;18669;53.356;-1.464;2023-03-03T07:18:54;102035.66;;;5.27;100.00
29839;BME280;18669;53.356;-1.464;2023-03-03T07:21:30;102034.81;;;5.28;100.00
29839;BME280;18669;53.356;-1.464;2023-03-03T07:23:57;102044.94;;;5.17;100.00
29839;BME280;18669;53.356;-1.464;2023-03-03T07:26:29;102038.13;;;5.22;100.00
29839;BME280;18669;53.356;-1.464;2023-03-03T07:28:59;102043.56;;;5.30;100.00
29839;BME280;18669;53.356;-1.464;2023-03-03T07:31:38;102042.66;;;5.29;100.00
29839;BME280;18669;53.356;-1.464;2023-03-03T07:34:22;102053.16;;;5.32;100.00
29839;BME280;18669;53.356;-1.464;2023-03-03T07:36:58;102047.03;;;5.32;100.00
29839;BME280;18669;53.356;-1.464;2023-03-03T07:39:36;102059.97;;;5.26;100.00
29839;BME280;18669;53.356;-1.464;2023-03-03T07:44:44;102043.81;;;5.42;100.00
29839;BME280;18669;53.356;-1.464;2023-03-03T07:47:17;102059.16;;;5.65;100.00
29839;BME280;18669;53.356;-1.464;2023-03-03T07:49:45;102062.56;;;5.62;100.00
29839;BME280;18669;53.356;-1.464;2023-03-03T07:52:41;102062.72;;;5.70;100.00
29839;BME280;18669;53.356;-1.464;2023-03-03T07:57:53;102067.94;;;5.68;100.00
29839;BME280;18669;53.356;-1.464;2023-03-03T08:02:50;102069.59;;;5.65;100.00
29839;BME280;18669;53.356;-1.464;2023-03-03T08:05:37;102056.66;;;5.71;100.00
29839;BME280;18669;53.356;-1.464;2023-03-03T08:08:32;102061.03;;;5.72;100.00
29839;BME280;18669;53.356;-1.464;2023-03-03T08:10:57;102064.16;;;5.56;100.00
29839;BME280;18669;53.356;-1.464;2023-03-03T08:13:28;102063.50;;;5.66;100.00
29839;BME280;18669;53.356;-1.464;2023-03-03T08:16:00;102067.84;;;5.64;100.00
29839;BME280;18669;53.356;-1.464;2023-03-03T08:18:29;102072.22;;;5.66;100.00
29839;BME280;18669;53.356;-1.464;2023-03-03T08:23:31;102080.75;;;5.58;100.00
29839;BME280;18669;53.356;-1.464;2023-03-03T08:25:57;102085.03;;;5.56;100.00
29839;BME280;18669;53.356;-1.464;2023-03-03T08:28:24;102089.41;;;5.57;100.00
29839;BME280;18669;53.356;-1.464;2023-03-03T08:30:50;102092.13;;;5.61;100.00
29839;BME280;18669;53.356;-1.464;2023-03-03T08:33:16;102097.97;;;5.51;100.00
29839;BME280;18669;53.356;-1.464;2023-03-03T08:35:42;102091.91;;;5.52;100.00
29839;BME280;18669;53.356;-1.464;2023-03-03T08:38:08;102101.81;;;5.65;100.00
29839;BME280;18669;53.356;-1.464;2023-03-03T08:40:35;102092.53;;;5.42;100.00
29839;BME280;18669;53.356;-1.464;2023-03-03T08:43:01;102100.97;;;5.30;100.00
29839;BME280;18669;53.356;-1.464;2023-03-03T08:45:27;102096.19;;;5.50;100.00
29839;BME280;18669;53.356;-1.464;2023-03-03T08:47:54;102102.25;;;5.47;100.00
29839;BME280;18669;53.356;-1.464;2023-03-03T08:50:21;102104.41;;;5.29;100.00
29839;BME280;18669;53.356;-1.464;2023-03-03T08:52:47;102100.88;;;5.27;100.00
29839;BME280;18669;53.356;-1.464;2023-03-03T08:55:13;102109.38;;;5.55;100.00
29839;BME280;18669;53.356;-1.464;2023-03-03T08:57:39;102105.03;;;5.55;100.00
29839;BME280;18669;53.356;-1.464;2023-03-03T09:00:07;102100.72;;;5.57;100.00
29839;BME280;18669;53.356;-1.464;2023-03-03T09:02:35;102096.00;;;5.41;100.00
29839;BME280;18669;53.356;-1.464;2023-03-03T09:05:03;102109.22;;;5.47;100.00
29839;BME280;18669;53.356;-1.464;2023-03-03T09:07:29;102104.69;;;5.41;100.00
29839;BME280;18669;53.356;-1.464;2023-03-03T09:09:55;102103.84;;;5.41;100.00
29839;BME280;18669;53.356;-1.464;2023-03-03T09:12:37;102119.13;;;5.62;100.00
29839;BME280;18669;53.356;-1.464;2023-03-03T09:17:48;102103.84;;;5.42;100.00
29839;BME280;18669;53.356;-1.464;2023-03-03T09:22:49;102118.97;;;5.56;100.00
29839;BME280;18669;53.356;-1.464;2023-03-03T09:25:30;102114.09;;;5.70;100.00
29839;BME280;18669;53.356;-1.464;2023-03-03T09:27:56;102120.84;;;5.61;100.00
29839;BME280;18669;53.356;-1.464;2023-03-03T09:32:52;102118.47;;;5.71;100.00
29839;BME280;18669;53.356;-1.464;2023-03-03T09:35:33;102118.78;;;5.85;100.00
29839;BME280;18669;53.356;-1.464;2023-03-03T09:50:00;102125.03;;;5.91;100.00
29839;BME280;18669;53.356;-1.464;2023-03-03T09:52:45;102130.09;;;5.85;100.00
29839;BME280;18669;53.356;-1.464;2023-03-03T10:05:51;102134.91;;;5.66;100.00
29839;BME280;18669;53.356;-1.464;2023-03-03T10:13:59;102142.22;;;5.83;100.00
29839;BME280;18669;53.356;-1.464;2023-03-03T10:17:00;102144.97;;;5.88;100.00
29839;BME280;18669;53.356;-1.464;2023-03-03T10:19:36;102143.28;;;5.90;100.00
29839;BME280;18669;53.356;-1.464;2023-03-03T10:22:35;102145.16;;;5.95;100.00
29839;BME280;18669;53.356;-1.464;2023-03-03T10:34:00;102138.13;;;6.31;100.00
29839;BME280;18669;53.356;-1.464;2023-03-03T10:45:18;102130.94;;;6.62;100.00
29839;BME280;18669;53.356;-1.464;2023-03-03T10:50:42;102132.69;;;6.63;100.00
29839;BME280;18669;53.356;-1.464;2023-03-03T10:53:28;102131.22;;;6.78;100.00
29839;BME280;18669;53.356;-1.464;2023-03-03T10:59:03;102129.09;;;7.03;100.00
29839;BME280;18669;53.356;-1.464;2023-03-03T11:01:49;102140.34;;;6.98;100.00
29839;BME280;18669;53.356;-1.464;2023-03-03T11:07:11;102136.88;;;7.01;100.00
29839;BME280;18669;53.356;-1.464;2023-03-03T11:12:47;102146.38;;;6.94;100.00
29839;BME280;18669;53.356;-1.464;2023-03-03T11:19:04;102138.78;;;6.64;100.00
29839;BME280;18669;53.356;-1.464;2023-03-03T11:23:48;102143.44;;;6.34;100.00
29839;BME280;18669;53.356;-1.464;2023-03-03T11:31:48;102143.38;;;6.76;100.00
29839;BME280;18669;53.356;-1.464;2023-03-03T11:36:57;102141.78;;;6.82;100.00
29839;BME280;18669;53.356;-1.464;2023-03-03T11:39:28;102142.38;;;6.67;100.00
29839;BME280;18669;53.356;-1.464;2023-03-03T11:44:44;102151.72;;;7.00;100.00
29839;BME280;18669;53.356;-1.464;2023-03-03T11:50:07;102134.94;;;6.91;100.00
29839;BME280;18669;53.356;-1.464;2023-03-03T11:55:34;102145.38;;;6.88;100.00
29839;BME280;18669;53.356;-1.464;2023-03-03T11:58:26;102146.44;;;6.97;100.00
29839;BME280;18669;53.356;-1.464;2023-03-03T12:03:53;102152.25;;;6.82;100.00
29839;BME280;18669;53.356;-1.464;2023-03-03T12:09:26;102154.06;;;6.86;100.00
29839;BME280;18669;53.356;-1.464;2023-03-03T12:12:05;102159.25;;;6.85;100.00
29839;BME280;18669;53.356;-1.464;2023-03-03T12:17:13;102145.38;;;6.88;100.00
29839;BME280;18669;53.356;-1.464;2023-03-03T12:25:57;102142.78;;;7.37;100.00
29839;BME280;18669;53.356;-1.464;2023-03-03T12:28:24;102141.06;;;7.39;100.00
29839;BME280;18669;53.356;-1.464;2023-03-03T12:33:58;102136.97;;;7.55;100.00
29839;BME280;18669;53.356;-1.464;2023-03-03T12:42:06;102128.56;;;7.78;100.00
29839;BME280;18669;53.356;-1.464;2023-03-03T12:47:49;102120.81;;;7.85;97.16
29839;BME280;18669;53.356;-1.464;2023-03-03T12:50:26;102113.97;;;7.95;99.21
29839;BME280;18669;53.356;-1.464;2023-03-03T12:55:52;102111.78;;;7.65;96.06
29839;BME280;18669;53.356;-1.464;2023-03-03T12:58:33;102106.13;;;7.97;98.14
29839;BME280;18669;53.356;-1.464;2023-03-03T13:04:06;102108.94;;;8.11;97.17
29839;BME280;18669;53.356;-1.464;2023-03-03T13:06:44;102108.00;;;8.04;94.08
29839;BME280;18669;53.356;-1.464;2023-03-03T13:17:07;102099.91;;;7.87;91.19
29839;BME280;18669;53.356;-1.464;2023-03-03T13:19:50;102095.41;;;7.81;92.33
29839;BME280;18669;53.356;-1.464;2023-03-03T13:22:26;102111.28;;;7.89;91.25
29839;BME280;18669;53.356;-1.464;2023-03-03T13:25:25;102098.84;;;7.74;92.80
29839;BME280;18669;53.356;-1.464;2023-03-03T13:28:01;102097.94;;;7.72;90.27
29839;BME280;18669;53.356;-1.464;2023-03-03T13:30:34;102099.53;;;7.64;90.40
29839;BME280;18669;53.356;-1.464;2023-03-03T13:33:25;102102.41;;;7.81;91.50
29839;BME280;18669;53.356;-1.464;2023-03-03T13:35:57;102093.59;;;7.75;85.76
29839;BME280;18669;53.356;-1.464;2023-03-03T13:38:28;102086.59;;;7.74;88.43
29839;BME280;18669;53.356;-1.464;2023-03-03T13:41:03;102089.25;;;7.76;86.46
29839;BME280;18669;53.356;-1.464;2023-03-03T13:43:44;102086.59;;;7.73;85.38
29839;BME280;18669;53.356;-1.464;2023-03-03T13:47:04;102091.00;;;7.77;86.43
29839;BME280;18669;53.356;-1.464;2023-03-03T13:59:33;102076.84;;;8.29;77.45
29839;BME280;18669;53.356;-1.464;2023-03-03T14:02:11;102081.13;;;8.22;74.45
29839;BME280;18669;53.356;-1.464;2023-03-03T14:04:53;102076.03;;;8.33;72.12
29839;BME280;18669;53.356;-1.464;2023-03-03T14:07:33;102079.34;;;8.19;74.46
29839;BME280;18669;53.356;-1.464;2023-03-03T14:12:55;102081.97;;;8.19;75.22
29839;BME280;18669;53.356;-1.464;2023-03-03T14:15:41;102072.53;;;8.35;74.55
29839;BME280;18669;53.356;-1.464;2023-03-03T14:18:49;102078.72;;;8.41;75.09
29839;BME280;18669;53.356;-1.464;2023-03-03T14:21:22;102078.59;;;8.28;74.14
29839;BME280;18669;53.356;-1.464;2023-03-03T14:26:23;102075.84;;;8.20;77.08
29839;BME280;18669;53.356;-1.464;2023-03-03T14:28:50;;;;8.25;
29839;BME280;18669;53.356;-1.464;2023-03-03T14:31:38;102064.75;;;8.40;77.85
29839;BME280;18669;53.356;-1.464;2023-03-03T14:36:41;102049.84;;;8.38;80.16
29839;BME280;18669;53.356;-1.464;2023-03-03T14:39:36;102062.31;;;8.56;79.26
29839;BME280;18669;53.356;-1.464;2023-03-03T14:42:28;102058.75;;;8.50;78.28
29839;BME280;18669;53.356;-1.464;2023-03-03T14:44:56;102051.63;;;8.40;78.49
29839;BME280;18669;53.356;-1.464;2023-03-03T14:47:25;102058.59;;;8.38;79.03
29839;BME280;18669;53.356;-1.464;2023-03-03T14:49:56;102049.94;;;8.45;79.22
29839;BME280;18669;53.356;-1.464;2023-03-03T14:52:29;102047.34;;;8.47;77.82
29839;BME280;18669;53.356;-1.464;2023-03-03T14:55:00;102049.84;;;8.36;79.78
29839;BME280;18669;53.356;-1.464;2023-03-03T15:05:27;102045.66;;;8.52;81.70
29839;BME280;18669;53.356;-1.464;2023-03-03T15:07:55;102041.16;;;8.42;80.38
29839;BME280;18669;53.356;-1.464;2023-03-03T15:10:41;102040.34;;;8.47;80.52
29839;BME280;18669;53.356;-1.464;2023-03-03T15:18:29;102032.44;;;8.44;82.59
29839;BME280;18669;53.356;-1.464;2023-03-03T15:23:43;102034.09;;;8.36;84.76
29839;BME280;18669;53.356;-1.464;2023-03-03T15:26:48;102031.31;;;8.24;86.95
29839;BME280;18669;53.356;-1.464;2023-03-03T15:29:40;102029.50;;;8.15;88.02
29839;BME280;18669;53.356;-1.464;2023-03-03T15:37:55;102018.84;;;8.02;87.28
29839;BME280;18669;53.356;-1.464;2023-03-03T15:43:12;102012.91;;;8.17;88.17
29839;BME280;18669;53.356;-1.464;2023-03-03T15:45:49;102017.28;;;8.18;89.73
29839;BME280;18669;53.356;-1.464;2023-03-03T15:51:24;102015.66;;;8.30;89.54
29839;BME280;18669;53.356;-1.464;2023-03-03T15:54:26;102014.81;;;8.31;87.82
29839;BME280;18669;53.356;-1.464;2023-03-03T15:56:59;102015.63;;;8.25;88.99
29839;BME280;18669;53.356;-1.464;2023-03-03T16:02:24;102007.66;;;8.16;90.39
29839;BME280;18669;53.356;-1.464;2023-03-03T16:05:12;102015.56;;;8.19;92.58
29839;BME280;18669;53.356;-1.464;2023-03-03T16:20:51;102015.31;;;8.00;84.01
29839;BME280;18669;53.356;-1.464;2023-03-03T16:26:35;102018.13;;;8.17;85.39
29839;BME280;18669;53.356;-1.464;2023-03-03T16:35:00;102010.22;;;8.11;87.09
29839;BME280;18669;53.356;-1.464;2023-03-03T16:37:38;102022.31;;;8.01;86.43
29839;BME280;18669;53.356;-1.464;2023-03-03T16:42:36;102024.84;;;7.92;88.27